<?xml version="1.0" encoding="UTF-8" standalone="no" ?>
<gpx xmlns="http://www.topografix.com/GPX/1/1" xmlns:xsi="http://www.w3.org/2001/XMLSchema-instance" xsi:schemaLocation="http://www.topografix.com/GPX/1/1 http://www.topografix.com/GPX/1/1/gpx.xsd" version="1.1" creator="VisuGPX - https://www.visugpx.com">
  <metadata>
    <name>14825736-ROV Conflans Plan B   - Les 30K - 29052022</name>
  </metadata>
  <trk>
    <name><![CDATA[14825736-ROV Conflans Plan B   - Les 30K - 29052022]]></name>
    <trkseg>
      <trkpt lat="48.99039" lon="2.08592">
        <ele>26</ele>
        <time>2022-05-28T16:07:41Z</time>
      </trkpt>
      <trkpt lat="48.99051" lon="2.08674">
        <ele>24</ele>
        <time>2022-05-28T16:08:55Z</time>
      </trkpt>
      <trkpt lat="48.99124" lon="2.08632">
        <ele>35</ele>
        <time>2022-05-28T16:10:39Z</time>
      </trkpt>
      <trkpt lat="48.9915" lon="2.08762">
        <ele>33</ele>
        <time>2022-05-28T16:12:38Z</time>
      </trkpt>
      <trkpt lat="48.99144" lon="2.08795">
        <ele>32</ele>
        <time>2022-05-28T16:13:08Z</time>
      </trkpt>
      <trkpt lat="48.99168" lon="2.08877">
        <ele>32</ele>
        <time>2022-05-28T16:14:26Z</time>
      </trkpt>
      <trkpt lat="48.99174" lon="2.08908">
        <ele>31</ele>
        <time>2022-05-28T16:14:55Z</time>
      </trkpt>
      <trkpt lat="48.992" lon="2.08968">
        <ele>32</ele>
        <time>2022-05-28T16:15:58Z</time>
      </trkpt>
      <trkpt lat="48.99221" lon="2.09007">
        <ele>32</ele>
        <time>2022-05-28T16:16:42Z</time>
      </trkpt>
      <trkpt lat="48.99253" lon="2.09026">
        <ele>34</ele>
        <time>2022-05-28T16:17:28Z</time>
      </trkpt>
      <trkpt lat="48.99259" lon="2.09093">
        <ele>30</ele>
        <time>2022-05-28T16:18:27Z</time>
      </trkpt>
      <trkpt lat="48.99273" lon="2.09153">
        <ele>31</ele>
        <time>2022-05-28T16:19:23Z</time>
      </trkpt>
      <trkpt lat="48.99267" lon="2.09225">
        <ele>31</ele>
        <time>2022-05-28T16:20:26Z</time>
      </trkpt>
      <trkpt lat="48.99259" lon="2.0924">
        <ele>31</ele>
        <time>2022-05-28T16:20:43Z</time>
      </trkpt>
      <trkpt lat="48.99245" lon="2.09201">
        <ele>29</ele>
        <time>2022-05-28T16:21:22Z</time>
      </trkpt>
      <trkpt lat="48.99212" lon="2.09212">
        <ele>28</ele>
        <time>2022-05-28T16:22:07Z</time>
      </trkpt>
      <trkpt lat="48.99191" lon="2.09163">
        <ele>26</ele>
        <time>2022-05-28T16:22:58Z</time>
      </trkpt>
      <trkpt lat="48.99174" lon="2.09189">
        <ele>26</ele>
        <time>2022-05-28T16:23:30Z</time>
      </trkpt>
      <trkpt lat="48.99181" lon="2.09244">
        <ele>28</ele>
        <time>2022-05-28T16:24:19Z</time>
      </trkpt>
      <trkpt lat="48.99192" lon="2.09341">
        <ele>31</ele>
        <time>2022-05-28T16:25:46Z</time>
      </trkpt>
      <trkpt lat="48.99202" lon="2.09428">
        <ele>32</ele>
        <time>2022-05-28T16:27:03Z</time>
      </trkpt>
      <trkpt lat="48.99196" lon="2.09582">
        <ele>32</ele>
        <time>2022-05-28T16:29:18Z</time>
      </trkpt>
      <trkpt lat="48.99202" lon="2.09631">
        <ele>33</ele>
        <time>2022-05-28T16:30:02Z</time>
      </trkpt>
      <trkpt lat="48.99217" lon="2.09716">
        <ele>36</ele>
        <time>2022-05-28T16:31:19Z</time>
      </trkpt>
      <trkpt lat="48.99205" lon="2.09773">
        <ele>33</ele>
        <time>2022-05-28T16:32:11Z</time>
      </trkpt>
      <trkpt lat="48.99214" lon="2.09806">
        <ele>35</ele>
        <time>2022-05-28T16:32:43Z</time>
      </trkpt>
      <trkpt lat="48.99212" lon="2.09969">
        <ele>33</ele>
        <time>2022-05-28T16:35:05Z</time>
      </trkpt>
      <trkpt lat="48.99167" lon="2.09976">
        <ele>23</ele>
        <time>2022-05-28T16:36:06Z</time>
      </trkpt>
      <trkpt lat="48.9917" lon="2.10021">
        <ele>24</ele>
        <time>2022-05-28T16:36:45Z</time>
      </trkpt>
      <trkpt lat="48.99172" lon="2.10233">
        <ele>24</ele>
        <time>2022-05-28T16:39:51Z</time>
      </trkpt>
      <trkpt lat="48.99191" lon="2.10427">
        <ele>28</ele>
        <time>2022-05-28T16:42:43Z</time>
      </trkpt>
      <trkpt lat="48.99198" lon="2.10591">
        <ele>27</ele>
        <time>2022-05-28T16:45:07Z</time>
      </trkpt>
      <trkpt lat="48.99187" lon="2.10687">
        <ele>24</ele>
        <time>2022-05-28T16:46:32Z</time>
      </trkpt>
      <trkpt lat="48.9917" lon="2.10853">
        <ele>23</ele>
        <time>2022-05-28T16:48:59Z</time>
      </trkpt>
      <trkpt lat="48.99149" lon="2.11026">
        <ele>22</ele>
        <time>2022-05-28T16:51:33Z</time>
      </trkpt>
      <trkpt lat="48.99142" lon="2.11139">
        <ele>22</ele>
        <time>2022-05-28T16:53:12Z</time>
      </trkpt>
      <trkpt lat="48.99181" lon="2.11399">
        <ele>23</ele>
        <time>2022-05-28T16:57:06Z</time>
      </trkpt>
      <trkpt lat="48.99202" lon="2.11506">
        <ele>25</ele>
        <time>2022-05-28T16:58:44Z</time>
      </trkpt>
      <trkpt lat="48.99213" lon="2.11683">
        <ele>23</ele>
        <time>2022-05-28T17:01:19Z</time>
      </trkpt>
      <trkpt lat="48.99224" lon="2.11793">
        <ele>24</ele>
        <time>2022-05-28T17:02:57Z</time>
      </trkpt>
      <trkpt lat="48.99226" lon="2.11894">
        <ele>24</ele>
        <time>2022-05-28T17:04:25Z</time>
      </trkpt>
      <trkpt lat="48.99236" lon="2.11995">
        <ele>26</ele>
        <time>2022-05-28T17:05:55Z</time>
      </trkpt>
      <trkpt lat="48.99281" lon="2.11969">
        <ele>33</ele>
        <time>2022-05-28T17:06:59Z</time>
      </trkpt>
      <trkpt lat="48.99331" lon="2.11838">
        <ele>44</ele>
        <time>2022-05-28T17:09:12Z</time>
      </trkpt>
      <trkpt lat="48.99426" lon="2.1181">
        <ele>53</ele>
        <time>2022-05-28T17:11:21Z</time>
      </trkpt>
      <trkpt lat="48.99596" lon="2.11808">
        <ele>56</ele>
        <time>2022-05-28T17:15:08Z</time>
      </trkpt>
      <trkpt lat="48.99612" lon="2.11707">
        <ele>57</ele>
        <time>2022-05-28T17:16:39Z</time>
      </trkpt>
      <trkpt lat="48.99809" lon="2.11636">
        <ele>53</ele>
        <time>2022-05-28T17:21:09Z</time>
      </trkpt>
      <trkpt lat="48.99858" lon="2.11661">
        <ele>51</ele>
        <time>2022-05-28T17:22:18Z</time>
      </trkpt>
      <trkpt lat="48.99936" lon="2.11752">
        <ele>51</ele>
        <time>2022-05-28T17:24:29Z</time>
      </trkpt>
      <trkpt lat="48.99956" lon="2.11591">
        <ele>47</ele>
        <time>2022-05-28T17:26:52Z</time>
      </trkpt>
      <trkpt lat="48.99975" lon="2.11621">
        <ele>48</ele>
        <time>2022-05-28T17:27:29Z</time>
      </trkpt>
      <trkpt lat="48.99993" lon="2.11677">
        <ele>50</ele>
        <time>2022-05-28T17:28:23Z</time>
      </trkpt>
      <trkpt lat="49" lon="2.11736">
        <ele>52</ele>
        <time>2022-05-28T17:29:16Z</time>
      </trkpt>
      <trkpt lat="49.00026" lon="2.118">
        <ele>50</ele>
        <time>2022-05-28T17:30:22Z</time>
      </trkpt>
      <trkpt lat="49.00086" lon="2.11861">
        <ele>48</ele>
        <time>2022-05-28T17:31:58Z</time>
      </trkpt>
      <trkpt lat="49.0005" lon="2.12004">
        <ele>50</ele>
        <time>2022-05-28T17:34:12Z</time>
      </trkpt>
      <trkpt lat="49.00115" lon="2.12056">
        <ele>49</ele>
        <time>2022-05-28T17:35:50Z</time>
      </trkpt>
      <trkpt lat="49.00101" lon="2.12233">
        <ele>49</ele>
        <time>2022-05-28T17:38:26Z</time>
      </trkpt>
      <trkpt lat="49.0012" lon="2.12291">
        <ele>49</ele>
        <time>2022-05-28T17:39:23Z</time>
      </trkpt>
      <trkpt lat="49.00163" lon="2.12301">
        <ele>48</ele>
        <time>2022-05-28T17:40:21Z</time>
      </trkpt>
      <trkpt lat="49.00122" lon="2.12411">
        <ele>48</ele>
        <time>2022-05-28T17:42:12Z</time>
      </trkpt>
      <trkpt lat="49.00111" lon="2.12514">
        <ele>50</ele>
        <time>2022-05-28T17:43:43Z</time>
      </trkpt>
      <trkpt lat="49.00057" lon="2.12704">
        <ele>53</ele>
        <time>2022-05-28T17:46:44Z</time>
      </trkpt>
      <trkpt lat="49.00008" lon="2.12922">
        <ele>54</ele>
        <time>2022-05-28T17:50:06Z</time>
      </trkpt>
      <trkpt lat="48.99956" lon="2.1316">
        <ele>58</ele>
        <time>2022-05-28T17:53:46Z</time>
      </trkpt>
      <trkpt lat="48.99911" lon="2.13323">
        <ele>57</ele>
        <time>2022-05-28T17:56:21Z</time>
      </trkpt>
      <trkpt lat="48.99719" lon="2.13253">
        <ele>57</ele>
        <time>2022-05-28T18:00:44Z</time>
      </trkpt>
      <trkpt lat="48.99521" lon="2.13207">
        <ele>56</ele>
        <time>2022-05-28T18:05:11Z</time>
      </trkpt>
      <trkpt lat="48.99376" lon="2.1319">
        <ele>55</ele>
        <time>2022-05-28T18:08:25Z</time>
      </trkpt>
      <trkpt lat="48.99222" lon="2.13105">
        <ele>41</ele>
        <time>2022-05-28T18:12:04Z</time>
      </trkpt>
      <trkpt lat="48.9919" lon="2.13178">
        <ele>34</ele>
        <time>2022-05-28T18:13:21Z</time>
      </trkpt>
      <trkpt lat="48.99176" lon="2.13324">
        <ele>32</ele>
        <time>2022-05-28T18:15:30Z</time>
      </trkpt>
      <trkpt lat="48.99176" lon="2.13448">
        <ele>34</ele>
        <time>2022-05-28T18:17:19Z</time>
      </trkpt>
      <trkpt lat="48.99385" lon="2.13458">
        <ele>56</ele>
        <time>2022-05-28T18:21:58Z</time>
      </trkpt>
      <trkpt lat="48.99402" lon="2.13563">
        <ele>58</ele>
        <time>2022-05-28T18:23:32Z</time>
      </trkpt>
      <trkpt lat="48.99405" lon="2.1371">
        <ele>58</ele>
        <time>2022-05-28T18:25:41Z</time>
      </trkpt>
      <trkpt lat="48.99187" lon="2.1372">
        <ele>34</ele>
        <time>2022-05-28T18:30:32Z</time>
      </trkpt>
      <trkpt lat="48.99186" lon="2.1389">
        <ele>34</ele>
        <time>2022-05-28T18:33:01Z</time>
      </trkpt>
      <trkpt lat="48.99166" lon="2.1408">
        <ele>33</ele>
        <time>2022-05-28T18:35:49Z</time>
      </trkpt>
      <trkpt lat="48.99144" lon="2.14202">
        <ele>32</ele>
        <time>2022-05-28T18:37:40Z</time>
      </trkpt>
      <trkpt lat="48.9914" lon="2.14261">
        <ele>33</ele>
        <time>2022-05-28T18:38:32Z</time>
      </trkpt>
      <trkpt lat="48.99227" lon="2.14284">
        <ele>52</ele>
        <time>2022-05-28T18:40:30Z</time>
      </trkpt>
      <trkpt lat="48.99202" lon="2.14454">
        <ele>51</ele>
        <time>2022-05-28T18:43:03Z</time>
      </trkpt>
      <trkpt lat="48.99158" lon="2.14673">
        <ele>54</ele>
        <time>2022-05-28T18:46:23Z</time>
      </trkpt>
      <trkpt lat="48.99121" lon="2.14807">
        <ele>49</ele>
        <time>2022-05-28T18:48:30Z</time>
      </trkpt>
      <trkpt lat="48.99103" lon="2.14928">
        <ele>50</ele>
        <time>2022-05-28T18:50:19Z</time>
      </trkpt>
      <trkpt lat="48.99082" lon="2.15034">
        <ele>51</ele>
        <time>2022-05-28T18:51:56Z</time>
      </trkpt>
      <trkpt lat="48.99058" lon="2.15038">
        <ele>47</ele>
        <time>2022-05-28T18:52:28Z</time>
      </trkpt>
      <trkpt lat="48.99052" lon="2.14949">
        <ele>43</ele>
        <time>2022-05-28T18:53:47Z</time>
      </trkpt>
      <trkpt lat="48.99065" lon="2.14863">
        <ele>44</ele>
        <time>2022-05-28T18:55:04Z</time>
      </trkpt>
      <trkpt lat="48.99055" lon="2.14806">
        <ele>39</ele>
        <time>2022-05-28T18:55:56Z</time>
      </trkpt>
      <trkpt lat="48.98996" lon="2.14785">
        <ele>27</ele>
        <time>2022-05-28T18:57:16Z</time>
      </trkpt>
      <trkpt lat="48.98949" lon="2.14894">
        <ele>26</ele>
        <time>2022-05-28T18:59:11Z</time>
      </trkpt>
      <trkpt lat="48.98873" lon="2.15089">
        <ele>24</ele>
        <time>2022-05-28T19:02:29Z</time>
      </trkpt>
      <trkpt lat="48.98949" lon="2.1514">
        <ele>34</ele>
        <time>2022-05-28T19:04:20Z</time>
      </trkpt>
      <trkpt lat="48.98892" lon="2.15298">
        <ele>35</ele>
        <time>2022-05-28T19:06:58Z</time>
      </trkpt>
      <trkpt lat="48.98843" lon="2.15441">
        <ele>34</ele>
        <time>2022-05-28T19:09:19Z</time>
      </trkpt>
      <trkpt lat="48.988" lon="2.15575">
        <ele>36</ele>
        <time>2022-05-28T19:11:30Z</time>
      </trkpt>
      <trkpt lat="48.98859" lon="2.15626">
        <ele>51</ele>
        <time>2022-05-28T19:13:00Z</time>
      </trkpt>
      <trkpt lat="48.98846" lon="2.1569">
        <ele>52</ele>
        <time>2022-05-28T19:13:59Z</time>
      </trkpt>
      <trkpt lat="48.98877" lon="2.15908">
        <ele>54</ele>
        <time>2022-05-28T19:17:14Z</time>
      </trkpt>
      <trkpt lat="48.98895" lon="2.16005">
        <ele>56</ele>
        <time>2022-05-28T19:18:43Z</time>
      </trkpt>
      <trkpt lat="48.98872" lon="2.16064">
        <ele>58</ele>
        <time>2022-05-28T19:19:43Z</time>
      </trkpt>
      <trkpt lat="48.98837" lon="2.15935">
        <ele>50</ele>
        <time>2022-05-28T19:21:45Z</time>
      </trkpt>
      <trkpt lat="48.98796" lon="2.15875">
        <ele>43</ele>
        <time>2022-05-28T19:23:01Z</time>
      </trkpt>
      <trkpt lat="48.98771" lon="2.15949">
        <ele>48</ele>
        <time>2022-05-28T19:24:14Z</time>
      </trkpt>
      <trkpt lat="48.98736" lon="2.15925">
        <ele>41</ele>
        <time>2022-05-28T19:25:05Z</time>
      </trkpt>
      <trkpt lat="48.98704" lon="2.16122">
        <ele>52</ele>
        <time>2022-05-28T19:28:03Z</time>
      </trkpt>
      <trkpt lat="48.9868" lon="2.16261">
        <ele>53</ele>
        <time>2022-05-28T19:30:08Z</time>
      </trkpt>
      <trkpt lat="48.98639" lon="2.16453">
        <ele>53</ele>
        <time>2022-05-28T19:33:05Z</time>
      </trkpt>
      <trkpt lat="48.98619" lon="2.16532">
        <ele>54</ele>
        <time>2022-05-28T19:34:19Z</time>
      </trkpt>
      <trkpt lat="48.986" lon="2.16542">
        <ele>51</ele>
        <time>2022-05-28T19:34:46Z</time>
      </trkpt>
      <trkpt lat="48.98548" lon="2.16583">
        <ele>43</ele>
        <time>2022-05-28T19:36:04Z</time>
      </trkpt>
      <trkpt lat="48.98503" lon="2.16652">
        <ele>37</ele>
        <time>2022-05-28T19:37:30Z</time>
      </trkpt>
      <trkpt lat="48.98461" lon="2.16755">
        <ele>41</ele>
        <time>2022-05-28T19:39:16Z</time>
      </trkpt>
      <trkpt lat="48.98407" lon="2.16857">
        <ele>35</ele>
        <time>2022-05-28T19:41:11Z</time>
      </trkpt>
      <trkpt lat="48.98339" lon="2.16958">
        <ele>33</ele>
        <time>2022-05-28T19:43:17Z</time>
      </trkpt>
      <trkpt lat="48.98276" lon="2.1707">
        <ele>36</ele>
        <time>2022-05-28T19:45:26Z</time>
      </trkpt>
      <trkpt lat="48.98187" lon="2.17189">
        <ele>36</ele>
        <time>2022-05-28T19:48:04Z</time>
      </trkpt>
      <trkpt lat="48.98107" lon="2.17295">
        <ele>30</ele>
        <time>2022-05-28T19:50:26Z</time>
      </trkpt>
      <trkpt lat="48.98068" lon="2.17347">
        <ele>29</ele>
        <time>2022-05-28T19:51:35Z</time>
      </trkpt>
      <trkpt lat="48.98075" lon="2.17385">
        <ele>33</ele>
        <time>2022-05-28T19:52:10Z</time>
      </trkpt>
      <trkpt lat="48.98024" lon="2.1741">
        <ele>29</ele>
        <time>2022-05-28T19:53:21Z</time>
      </trkpt>
      <trkpt lat="48.98033" lon="2.17442">
        <ele>33</ele>
        <time>2022-05-28T19:53:52Z</time>
      </trkpt>
      <trkpt lat="48.97987" lon="2.17505">
        <ele>36</ele>
        <time>2022-05-28T19:55:14Z</time>
      </trkpt>
      <trkpt lat="48.97933" lon="2.17576">
        <ele>50</ele>
        <time>2022-05-28T19:56:49Z</time>
      </trkpt>
      <trkpt lat="48.97863" lon="2.17619">
        <ele>47</ele>
        <time>2022-05-28T19:58:30Z</time>
      </trkpt>
      <trkpt lat="48.97789" lon="2.17676">
        <ele>44</ele>
        <time>2022-05-28T20:00:21Z</time>
      </trkpt>
      <trkpt lat="48.97781" lon="2.17667">
        <ele>41</ele>
        <time>2022-05-28T20:00:34Z</time>
      </trkpt>
      <trkpt lat="48.97743" lon="2.1768">
        <ele>37</ele>
        <time>2022-05-28T20:01:26Z</time>
      </trkpt>
      <trkpt lat="48.9773" lon="2.17616">
        <ele>29</ele>
        <time>2022-05-28T20:02:25Z</time>
      </trkpt>
      <trkpt lat="48.97498" lon="2.17758">
        <ele>26</ele>
        <time>2022-05-28T20:07:58Z</time>
      </trkpt>
      <trkpt lat="48.97416" lon="2.1781">
        <ele>28</ele>
        <time>2022-05-28T20:09:57Z</time>
      </trkpt>
      <trkpt lat="48.97293" lon="2.17889">
        <ele>28</ele>
        <time>2022-05-28T20:12:55Z</time>
      </trkpt>
      <trkpt lat="48.97228" lon="2.17933">
        <ele>28</ele>
        <time>2022-05-28T20:14:30Z</time>
      </trkpt>
      <trkpt lat="48.97149" lon="2.17729">
        <ele>24</ele>
        <time>2022-05-28T20:17:57Z</time>
      </trkpt>
      <trkpt lat="48.97053" lon="2.17801">
        <ele>23</ele>
        <time>2022-05-28T20:20:20Z</time>
      </trkpt>
      <trkpt lat="48.96877" lon="2.17899">
        <ele>27</ele>
        <time>2022-05-28T20:24:30Z</time>
      </trkpt>
      <trkpt lat="48.96806" lon="2.17899">
        <ele>25</ele>
        <time>2022-05-28T20:26:05Z</time>
      </trkpt>
      <trkpt lat="48.96737" lon="2.17829">
        <ele>23</ele>
        <time>2022-05-28T20:27:56Z</time>
      </trkpt>
      <trkpt lat="48.96685" lon="2.17824">
        <ele>24</ele>
        <time>2022-05-28T20:29:05Z</time>
      </trkpt>
      <trkpt lat="48.96713" lon="2.17687">
        <ele>21</ele>
        <time>2022-05-28T20:31:11Z</time>
      </trkpt>
      <trkpt lat="48.96717" lon="2.17563">
        <ele>20</ele>
        <time>2022-05-28T20:33:00Z</time>
      </trkpt>
      <trkpt lat="48.9663" lon="2.17524">
        <ele>22</ele>
        <time>2022-05-28T20:35:01Z</time>
      </trkpt>
      <trkpt lat="48.96495" lon="2.17515">
        <ele>23</ele>
        <time>2022-05-28T20:38:01Z</time>
      </trkpt>
      <trkpt lat="48.96424" lon="2.1746">
        <ele>23</ele>
        <time>2022-05-28T20:39:47Z</time>
      </trkpt>
      <trkpt lat="48.96391" lon="2.17391">
        <ele>23</ele>
        <time>2022-05-28T20:41:02Z</time>
      </trkpt>
      <trkpt lat="48.96419" lon="2.16773">
        <ele>28</ele>
        <time>2022-05-28T20:50:05Z</time>
      </trkpt>
      <trkpt lat="48.96384" lon="2.16698">
        <ele>29</ele>
        <time>2022-05-28T20:51:25Z</time>
      </trkpt>
      <trkpt lat="48.96364" lon="2.16627">
        <ele>29</ele>
        <time>2022-05-28T20:52:33Z</time>
      </trkpt>
      <trkpt lat="48.96312" lon="2.16424">
        <ele>32</ele>
        <time>2022-05-28T20:55:44Z</time>
      </trkpt>
      <trkpt lat="48.96208" lon="2.16049">
        <ele>34</ele>
        <time>2022-05-28T21:01:41Z</time>
      </trkpt>
      <trkpt lat="48.96154" lon="2.15837">
        <ele>37</ele>
        <time>2022-05-28T21:05:00Z</time>
      </trkpt>
      <trkpt lat="48.96043" lon="2.1543">
        <ele>38</ele>
        <time>2022-05-28T21:11:26Z</time>
      </trkpt>
      <trkpt lat="48.95981" lon="2.16076">
        <ele>34</ele>
        <time>2022-05-28T21:20:58Z</time>
      </trkpt>
      <trkpt lat="48.95771" lon="2.15955">
        <ele>35</ele>
        <time>2022-05-28T21:25:58Z</time>
      </trkpt>
      <trkpt lat="48.95648" lon="2.15695">
        <ele>36</ele>
        <time>2022-05-28T21:30:39Z</time>
      </trkpt>
      <trkpt lat="48.95615" lon="2.1536">
        <ele>35</ele>
        <time>2022-05-28T21:35:35Z</time>
      </trkpt>
      <trkpt lat="48.95635" lon="2.15221">
        <ele>37</ele>
        <time>2022-05-28T21:37:40Z</time>
      </trkpt>
      <trkpt lat="48.95621" lon="2.15186">
        <ele>37</ele>
        <time>2022-05-28T21:38:16Z</time>
      </trkpt>
      <trkpt lat="48.95573" lon="2.1511">
        <ele>37</ele>
        <time>2022-05-28T21:39:48Z</time>
      </trkpt>
      <trkpt lat="48.95492" lon="2.14926">
        <ele>39</ele>
        <time>2022-05-28T21:43:02Z</time>
      </trkpt>
      <trkpt lat="48.95403" lon="2.1473">
        <ele>42</ele>
        <time>2022-05-28T21:46:31Z</time>
      </trkpt>
      <trkpt lat="48.95352" lon="2.14635">
        <ele>43</ele>
        <time>2022-05-28T21:48:19Z</time>
      </trkpt>
      <trkpt lat="48.95275" lon="2.14671">
        <ele>42</ele>
        <time>2022-05-28T21:50:06Z</time>
      </trkpt>
      <trkpt lat="48.95183" lon="2.14628">
        <ele>42</ele>
        <time>2022-05-28T21:52:15Z</time>
      </trkpt>
      <trkpt lat="48.95143" lon="2.1459">
        <ele>41</ele>
        <time>2022-05-28T21:53:18Z</time>
      </trkpt>
      <trkpt lat="48.95252" lon="2.14401">
        <ele>42</ele>
        <time>2022-05-28T21:56:58Z</time>
      </trkpt>
      <trkpt lat="48.95136" lon="2.14253">
        <ele>40</ele>
        <time>2022-05-28T22:00:20Z</time>
      </trkpt>
      <trkpt lat="48.95287" lon="2.13973">
        <ele>42</ele>
        <time>2022-05-28T22:05:38Z</time>
      </trkpt>
      <trkpt lat="48.95212" lon="2.13889">
        <ele>42</ele>
        <time>2022-05-28T22:07:42Z</time>
      </trkpt>
      <trkpt lat="48.95199" lon="2.13908">
        <ele>42</ele>
        <time>2022-05-28T22:08:06Z</time>
      </trkpt>
      <trkpt lat="48.95059" lon="2.13752">
        <ele>41</ele>
        <time>2022-05-28T22:11:57Z</time>
      </trkpt>
      <trkpt lat="48.95102" lon="2.13691">
        <ele>40</ele>
        <time>2022-05-28T22:13:16Z</time>
      </trkpt>
      <trkpt lat="48.95075" lon="2.13651">
        <ele>41</ele>
        <time>2022-05-28T22:14:06Z</time>
      </trkpt>
      <trkpt lat="48.95181" lon="2.13494">
        <ele>39</ele>
        <time>2022-05-28T22:17:23Z</time>
      </trkpt>
      <trkpt lat="48.9525" lon="2.13382">
        <ele>44</ele>
        <time>2022-05-28T22:19:38Z</time>
      </trkpt>
      <trkpt lat="48.95249" lon="2.13347">
        <ele>47</ele>
        <time>2022-05-28T22:20:09Z</time>
      </trkpt>
      <trkpt lat="48.95196" lon="2.13294">
        <ele>49</ele>
        <time>2022-05-28T22:21:33Z</time>
      </trkpt>
      <trkpt lat="48.95136" lon="2.13255">
        <ele>49</ele>
        <time>2022-05-28T22:23:00Z</time>
      </trkpt>
      <trkpt lat="48.95063" lon="2.13187">
        <ele>48</ele>
        <time>2022-05-28T22:24:54Z</time>
      </trkpt>
      <trkpt lat="48.95062" lon="2.13144">
        <ele>50</ele>
        <time>2022-05-28T22:25:32Z</time>
      </trkpt>
      <trkpt lat="48.9476" lon="2.12997">
        <ele>60</ele>
        <time>2022-05-28T22:32:35Z</time>
      </trkpt>
      <trkpt lat="48.94784" lon="2.12656">
        <ele>63</ele>
        <time>2022-05-28T22:37:36Z</time>
      </trkpt>
      <trkpt lat="48.95093" lon="2.12907">
        <ele>55</ele>
        <time>2022-05-28T22:45:23Z</time>
      </trkpt>
      <trkpt lat="48.95266" lon="2.13047">
        <ele>53</ele>
        <time>2022-05-28T22:49:45Z</time>
      </trkpt>
      <trkpt lat="48.95363" lon="2.1313">
        <ele>51</ele>
        <time>2022-05-28T22:52:13Z</time>
      </trkpt>
      <trkpt lat="48.95459" lon="2.13188">
        <ele>46</ele>
        <time>2022-05-28T22:54:31Z</time>
      </trkpt>
      <trkpt lat="48.95666" lon="2.12857">
        <ele>47</ele>
        <time>2022-05-28T23:01:11Z</time>
      </trkpt>
      <trkpt lat="48.95834" lon="2.13032">
        <ele>42</ele>
        <time>2022-05-28T23:05:43Z</time>
      </trkpt>
      <trkpt lat="48.96022" lon="2.13209">
        <ele>44</ele>
        <time>2022-05-28T23:10:38Z</time>
      </trkpt>
      <trkpt lat="48.96365" lon="2.136">
        <ele>45</ele>
        <time>2022-05-28T23:20:10Z</time>
      </trkpt>
      <trkpt lat="48.96779" lon="2.14116">
        <ele>40</ele>
        <time>2022-05-28T23:32:04Z</time>
      </trkpt>
      <trkpt lat="48.96941" lon="2.14344">
        <ele>39</ele>
        <time>2022-05-28T23:36:58Z</time>
      </trkpt>
      <trkpt lat="48.97096" lon="2.14004">
        <ele>41</ele>
        <time>2022-05-28T23:43:01Z</time>
      </trkpt>
      <trkpt lat="48.96911" lon="2.13801">
        <ele>39</ele>
        <time>2022-05-28T23:48:05Z</time>
      </trkpt>
      <trkpt lat="48.97091" lon="2.13405">
        <ele>39</ele>
        <time>2022-05-28T23:55:07Z</time>
      </trkpt>
      <trkpt lat="48.97225" lon="2.1374">
        <ele>39</ele>
        <time>2022-05-29T00:00:50Z</time>
      </trkpt>
      <trkpt lat="48.97368" lon="2.13451">
        <ele>38</ele>
        <time>2022-05-29T00:06:07Z</time>
      </trkpt>
      <trkpt lat="48.97613" lon="2.13813">
        <ele>38</ele>
        <time>2022-05-29T00:13:43Z</time>
      </trkpt>
      <trkpt lat="48.97806" lon="2.13405">
        <ele>36</ele>
        <time>2022-05-29T00:21:03Z</time>
      </trkpt>
      <trkpt lat="48.97543" lon="2.13126">
        <ele>37</ele>
        <time>2022-05-29T00:28:11Z</time>
      </trkpt>
      <trkpt lat="48.97771" lon="2.12656">
        <ele>34</ele>
        <time>2022-05-29T00:36:43Z</time>
      </trkpt>
      <trkpt lat="48.9794" lon="2.12311">
        <ele>33</ele>
        <time>2022-05-29T00:43:00Z</time>
      </trkpt>
      <trkpt lat="48.97706" lon="2.1159">
        <ele>33</ele>
        <time>2022-05-29T00:54:44Z</time>
      </trkpt>
      <trkpt lat="48.97627" lon="2.1083">
        <ele>29</ele>
        <time>2022-05-29T01:05:58Z</time>
      </trkpt>
      <trkpt lat="48.97657" lon="2.10833">
        <ele>28</ele>
        <time>2022-05-29T01:06:39Z</time>
      </trkpt>
      <trkpt lat="48.97785" lon="2.0992">
        <ele>25</ele>
        <time>2022-05-29T01:20:16Z</time>
      </trkpt>
      <trkpt lat="48.9782" lon="2.09759">
        <ele>27</ele>
        <time>2022-05-29T01:22:45Z</time>
      </trkpt>
      <trkpt lat="48.97878" lon="2.09382">
        <ele>27</ele>
        <time>2022-05-29T01:28:24Z</time>
      </trkpt>
      <trkpt lat="48.97925" lon="2.09061">
        <ele>25</ele>
        <time>2022-05-29T01:33:12Z</time>
      </trkpt>
      <trkpt lat="48.97967" lon="2.08757">
        <ele>24</ele>
        <time>2022-05-29T01:37:44Z</time>
      </trkpt>
      <trkpt lat="48.98174" lon="2.08873">
        <ele>24</ele>
        <time>2022-05-29T01:42:38Z</time>
      </trkpt>
      <trkpt lat="48.9825" lon="2.08946">
        <ele>24</ele>
        <time>2022-05-29T01:44:38Z</time>
      </trkpt>
      <trkpt lat="48.98506" lon="2.08813">
        <ele>24</ele>
        <time>2022-05-29T01:50:39Z</time>
      </trkpt>
      <trkpt lat="48.98577" lon="2.08762">
        <ele>21</ele>
        <time>2022-05-29T01:52:24Z</time>
      </trkpt>
      <trkpt lat="48.98542" lon="2.08505">
        <ele>24</ele>
        <time>2022-05-29T01:56:14Z</time>
      </trkpt>
      <trkpt lat="48.98968" lon="2.08229">
        <ele>23</ele>
        <time>2022-05-29T02:06:32Z</time>
      </trkpt>
      <trkpt lat="48.9905" lon="2.08633">
        <ele>26</ele>
        <time>2022-05-29T02:12:42Z</time>
      </trkpt>
    </trkseg>
  </trk>
</gpx>